Terminal Aerodrome Forecast
Issued by NWS

Home | Current Version | Previous Version | Text Only | Print | Product List | Glossary On
Versions: 1 2 3 4 5 6 7 8 9 10 11 12 13 14
069
FTUS44 KLZK 080340 AAA
TAFHOT
TAF AMD
KHOT 080340Z 0804/0824 30007KT P6SM BKN250
     FM080800 30012G20KT P6SM SCT150
     FM081600 32014G24KT P6SM BKN040=

USA.gov is the U.S. government's official web portal to all federal, state and local government web resources and services.